UAL Bodewes — PCLO — position and weather

sailwx.info

Track history (hours):
 
Tides and Currents Weather Stations Pressure Air Temp Water Temp Dewpoint Dewpoint Depression Visibility Wind Speed Wind Dir Waves Ship Positions

UAL Bodewes

Last reported at 2017-Nov-19 19:20 UTC. Time now 2017-Nov-19 19:42 UTC.
Position N 48°14' W 006°25'.

Length 119 m; draft 6.8 m.

Type: Cargo ship. MMSI: 246704000.

Date/timePositionNaut miles runAvg speedWind from/ knotsBaromVisibWave heightAir tempDewpointWater temp
2017-Nov-19 19:20N 48°14' W 006°25'4812.5
2017-Nov-19 15:31N 48°54' W 005°46'711.7
2017-Nov-19 14:52N 48°58' W 005°36'10312.6
2017-Nov-19 06:43N 49°49' W 003°20'210.7
2017-Nov-19 06:30N 49°50' W 003°17'710.6
2017-Nov-19 05:48N 49°54' W 003°07'410.9
2017-Nov-19 05:27N 49°56' W 003°02'511.2
2017-Nov-19 05:00N 49°59' W 002°55'611.8
2017-Nov-19 04:28N 50°00' W 002°46'3314.2
2017-Nov-19 02:10N 50°02' W 001°55'315.8
2017-Nov-19 02:00N 50°01' W 001°51'815.9
2017-Nov-19 01:30N 49°57' W 001°40'815.9
2017-Nov-19 01:00N 49°54' W 001°29'816.0
2017-Nov-19 00:30N 49°50' W 001°18'714.8
2017-Nov-19 00:00N 49°47' W 001°08'1912.7
2017-Nov-18 22:29N 49°39' W 000°41'511.6
2017-Nov-18 22:00N 49°37' W 000°33'611.1
2017-Nov-18 21:30N 49°35' W 000°24'611.2
2017-Nov-18 21:01N 49°32' W 000°17'611.4
2017-Nov-18 20:31N 49°30' W 000°09'611.4
2017-Nov-18 20:00N 49°28' W 000°01'510.1
2017-Nov-18 19:31N 49°26' E 000°06'5 9.2
2017-Nov-18 19:01N 49°26' E 000°13'5 9.8
2017-Nov-18 18:30N 49°26' E 000°21'612.1
2017-Nov-18 18:01N 49°29' E 000°29'5 9.0
2017-Nov-18 17:31N 49°26' E 000°35'611.0
2017-Nov-18 17:01N 49°30' E 000°40'4 8.5
2017-Nov-18 16:31N 49°29' E 000°47'611.6
2017-Nov-18 16:00N 49°24' E 000°50'510.9
2017-Nov-18 15:31N 49°29' E 000°53'5 9.4
2017-Nov-18 15:00N 49°25' E 000°56'4 7.6
2017-Nov-18 14:29N 49°21' E 000°59'0 0.3
2017-Nov-18 13:59N 49°21' E 000°59'0 0.0
2017-Nov-18 13:29N 49°21' E 000°59'0 0.0
2017-Nov-18 12:47N 49°21' E 000°59'0 0.0
2017-Nov-18 12:23N 49°21' E 000°59'0 0.0
2017-Nov-18 11:59N 49°21' E 000°59'0 0.0
2017-Nov-18 11:29N 49°21' E 000°59'0 0.0
2017-Nov-18 10:59N 49°21' E 000°59'0 0.0
2017-Nov-18 10:29N 49°21' E 000°59'0 0.0
2017-Nov-18 09:59N 49°21' E 000°59'0 0.0
2017-Nov-18 09:23N 49°21' E 000°59'0 0.0
2017-Nov-18 08:59N 49°21' E 000°59'0 0.0
2017-Nov-18 08:29N 49°21' E 000°59'0 0.0
2017-Nov-18 07:59N 49°21' E 000°59'0 0.0
2017-Nov-18 07:23N 49°21' E 000°59'0 0.0
2017-Nov-18 06:59N 49°21' E 000°59'0 0.0
2017-Nov-18 06:29N 49°21' E 000°59'0 0.0
2017-Nov-18 05:59N 49°21' E 000°59'0 0.0
2017-Nov-18 05:29N 49°21' E 000°59'0 0.0
2017-Nov-18 04:59N 49°21' E 000°59'0 0.0
2017-Nov-18 04:29N 49°21' E 000°59'0 0.0
2017-Nov-18 03:59N 49°21' E 000°59'0 0.0
2017-Nov-18 03:29N 49°21' E 000°59'0 0.0
2017-Nov-18 02:59N 49°21' E 000°59'0 0.0
2017-Nov-18 02:29N 49°21' E 000°59'0 0.3
2017-Nov-18 02:00N 49°21' E 000°58'4 7.1
2017-Nov-18 01:30N 49°24' E 000°55'510.3
2017-Nov-18 01:00N 49°29' E 000°54'510.7
2017-Nov-18 00:30N 49°24' E 000°52'4 7.9
2017-Nov-18 00:00N 49°27' E 000°49'510.6
2017-Nov-17 23:30N 49°31' E 000°44'5 9.7
2017-Nov-17 23:00N 49°27' E 000°40'4 8.9
2017-Nov-17 22:30N 49°28' E 000°33'4 8.9
2017-Nov-17 22:00N 49°27' E 000°26'713.0
2017-Nov-17 21:30N 49°26' E 000°16'713.0
2017-Nov-17 21:00N 49°26' E 000°06'612.7
2017-Nov-17 20:30N 49°29' W 000°03'4 7.2
2017-Nov-17 20:00N 49°29' W 000°08'0 0.3
2017-Nov-17 19:30N 49°29' W 000°08'0 0.0
2017-Nov-17 19:00N 49°29' W 000°08'0 0.0
2017-Nov-17 18:30N 49°29' W 000°08'0 0.0
2017-Nov-17 18:00N 49°29' W 000°08'0 0.1
2017-Nov-17 17:30N 49°29' W 000°09'0 0.1
2017-Nov-17 17:00N 49°29' W 000°09'0 0.1
2017-Nov-17 16:30N 49°29' W 000°09'0 0.0
2017-Nov-17 16:00N 49°29' W 000°09'0 0.0
2017-Nov-17 15:30N 49°29' W 000°09'0 0.0
2017-Nov-17 15:00N 49°29' W 000°09'0 0.0
2017-Nov-17 14:30N 49°29' W 000°09'0 0.0
2017-Nov-17 13:57N 49°29' W 000°09'0 0.0
2017-Nov-17 13:30N 49°29' W 000°09'0 0.0
2017-Nov-17 13:00N 49°29' W 000°09'0 0.0
2017-Nov-17 12:30N 49°29' W 000°09'0 0.0
2017-Nov-17 11:57N 49°29' W 000°09'0 0.0
2017-Nov-17 11:30N 49°29' W 000°09'0 0.0
2017-Nov-17 10:57N 49°29' W 000°09'0 0.0
2017-Nov-17 10:30N 49°29' W 000°09'0 0.1
2017-Nov-17 10:00N 49°29' W 000°09'0 0.2
2017-Nov-17 09:30N 49°29' W 000°09'0 0.0
2017-Nov-17 09:00N 49°29' W 000°09'0 0.0
2017-Nov-17 08:30N 49°29' W 000°09'0 0.0
2017-Nov-17 08:00N 49°29' W 000°09'0 0.1
2017-Nov-17 07:30N 49°29' W 000°08'0 0.2
2017-Nov-17 07:00N 49°29' W 000°09'5 9.6
2017-Nov-17 06:30N 49°32' W 000°15'4 8.7
2017-Nov-17 06:01N 49°35' W 000°20'4 9.0
2017-Nov-17 05:30N 49°39' W 000°21'4 8.8
2017-Nov-17 05:00N 49°44' W 000°23'4 8.7
2017-Nov-17 04:31N 49°48' W 000°24'4 8.4
2017-Nov-17 04:00N 49°52' W 000°22'4 8.5
2017-Nov-17 03:30N 49°56' W 000°18'510.6
2017-Nov-17 02:59N 49°60' W 000°13'2511.1
2017-Nov-17 00:41N 50°25' W 000°04'210.6
2017-Nov-17 00:30N 50°27' W 000°03'612.4
2017-Nov-17 00:00N 50°29' E 000°06'612.3
2017-Nov-16 23:30N 50°30' E 000°16'712.0
2017-Nov-16 22:55N 50°32' E 000°26'511.7
2017-Nov-16 22:29N 50°34' E 000°34'511.1
2017-Nov-16 22:00N 50°37' E 000°40'611.1
2017-Nov-16 21:30N 50°41' E 000°46'510.8
2017-Nov-16 21:00N 50°44' E 000°53'1411.0
2017-Nov-16 19:45N 50°54' E 001°09'311.6
2017-Nov-16 19:30N 50°56' E 001°13'612.6
2017-Nov-16 19:00N 50°60' E 001°20'714.1
2017-Nov-16 18:30N 51°05' E 001°28'714.6
2017-Nov-16 18:00N 51°09' E 001°37'713.7
2017-Nov-16 17:30N 51°15' E 001°42'612.8
2017-Nov-16 17:00N 51°22' E 001°44'612.8
2017-Nov-16 16:30N 51°28' E 001°44'612.3
2017-Nov-16 16:00N 51°34' E 001°45'611.7
2017-Nov-16 15:30N 51°40' E 001°45'611.4
2017-Nov-16 15:00N 51°46' E 001°44'510.9
2017-Nov-16 14:30N 51°51' E 001°44'510.3
2017-Nov-16 14:00N 51°56' E 001°45'510.0
2017-Nov-16 13:30N 52°01' E 001°48'5 9.7
2017-Nov-16 13:00N 52°06' E 001°50'510.1
2017-Nov-16 12:30N 52°11' E 001°52'4310.4
2017-Nov-16 08:21N 52°54' E 001°60'513.7
2017-Nov-16 08:00N 52°56' E 001°53'714.0
2017-Nov-16 07:30N 52°60' E 001°43'714.4
2017-Nov-16 07:00N 53°03' E 001°32'714.3
2017-Nov-16 06:30N 53°08' E 001°24'714.3
2017-Nov-16 06:00N 53°14' E 001°16'6313.7
2017-Nov-16 01:23N 54°11' E 000°31'613.4
2017-Nov-16 00:55N 54°17' E 000°26'613.2
2017-Nov-16 00:27N 54°22' E 000°22'613.0
2017-Nov-15 23:59N 54°28' E 000°18'612.8
2017-Nov-15 23:29N 54°34' E 000°13'612.6
2017-Nov-15 23:00N 54°39' E 000°08'612.5
2017-Nov-15 22:29N 54°45' E 000°04'15012.7
2017-Nov-15 10:41N 56°59' W 001°56'313.8
2017-Nov-15 10:29N 57°01' W 001°57'714.1
2017-Nov-15 10:00N 57°08' W 002°01'2 4.4
2017-Nov-15 09:28N 57°09' W 002°05'0 0.0
2017-Nov-15 08:58N 57°09' W 002°05'0 0.0
2017-Nov-15 08:28N 57°09' W 002°05'0 0.0
2017-Nov-15 07:58N 57°09' W 002°05'0 0.0
2017-Nov-15 07:28N 57°09' W 002°05'0 0.0
2017-Nov-15 06:58N 57°09' W 002°05'0 0.0
2017-Nov-15 06:28N 57°09' W 002°05'0 0.0
2017-Nov-15 05:58N 57°09' W 002°05'0 0.0
2017-Nov-15 05:28N 57°09' W 002°05'0 0.0
2017-Nov-15 04:58N 57°09' W 002°05'0 0.0
2017-Nov-15 04:28N 57°09' W 002°05'0 0.0
2017-Nov-15 03:58N 57°09' W 002°05'0 0.0
2017-Nov-15 03:28N 57°09' W 002°05'0 0.0
2017-Nov-15 02:55N 57°09' W 002°05'0 0.0
2017-Nov-15 02:28N 57°09' W 002°05'0 0.0
2017-Nov-15 01:58N 57°09' W 002°05'0 0.0
2017-Nov-15 01:28N 57°09' W 002°05'0 0.0
2017-Nov-15 00:58N 57°09' W 002°05'0 0.0
2017-Nov-15 00:28N 57°09' W 002°05'0 0.0
2017-Nov-14 23:58N 57°09' W 002°05'0 0.0
2017-Nov-14 23:28N 57°09' W 002°05'0 0.0
2017-Nov-14 22:58N 57°09' W 002°05'0 0.3
2017-Nov-14 22:28N 57°09' W 002°05'0 0.0
2017-Nov-14 21:58N 57°09' W 002°05'0 0.0
2017-Nov-14 21:28N 57°09' W 002°05'0 0.0
2017-Nov-14 20:58N 57°09' W 002°05'0 0.0
2017-Nov-14 20:28N 57°09' W 002°05'0 0.0
2017-Nov-14 19:58N 57°09' W 002°05'0 0.0
2017-Nov-14 19:28N 57°09' W 002°05'0 0.0
2017-Nov-14 18:58N 57°09' W 002°05'0 0.0
2017-Nov-14 18:28N 57°09' W 002°05'0 0.0
2017-Nov-14 17:58N 57°09' W 002°05'0 0.0
2017-Nov-14 17:28N 57°09' W 002°05'0 0.0
2017-Nov-14 16:58N 57°09' W 002°05'0 0.0
2017-Nov-14 16:28N 57°09' W 002°05'0 0.0
2017-Nov-14 15:58N 57°09' W 002°05'0 0.0
2017-Nov-14 15:28N 57°09' W 002°05'0 0.0
2017-Nov-14 14:58N 57°09' W 002°05'0 0.0
2017-Nov-14 14:28N 57°09' W 002°05'0 0.0
2017-Nov-14 13:58N 57°09' W 002°05'0 0.0
2017-Nov-14 13:28N 57°09' W 002°05'0 0.0
2017-Nov-14 12:58N 57°09' W 002°05'0 0.0
2017-Nov-14 12:28N 57°09' W 002°05'0 0.0
2017-Nov-14 11:58N 57°09' W 002°05'0 0.0
2017-Nov-14 11:25N 57°09' W 002°05'0 0.0
2017-Nov-14 10:58N 57°09' W 002°05'0 0.0
2017-Nov-14 10:28N 57°09' W 002°05'0 0.0
2017-Nov-14 09:58N 57°09' W 002°05'0 0.0
2017-Nov-14 09:28N 57°09' W 002°05'0 0.0
2017-Nov-14 08:58N 57°09' W 002°05'0 0.0
2017-Nov-14 08:28N 57°09' W 002°05'0 0.0
2017-Nov-14 07:55N 57°09' W 002°05'0 0.0
2017-Nov-14 07:25N 57°09' W 002°05'0 0.0
2017-Nov-14 06:58N 57°09' W 002°05'0 0.0
2017-Nov-14 06:28N 57°09' W 002°05'0 0.0
2017-Nov-14 05:58N 57°09' W 002°05'0 0.0
2017-Nov-14 05:25N 57°09' W 002°05'0 0.0
2017-Nov-14 04:58N 57°09' W 002°05'0 0.0
2017-Nov-14 04:28N 57°09' W 002°05'0 0.0
2017-Nov-14 03:58N 57°09' W 002°05'0 0.0
2017-Nov-14 03:28N 57°09' W 002°05'0 0.0
2017-Nov-14 02:58N 57°09' W 002°05'0 0.0
2017-Nov-14 02:28N 57°09' W 002°05'0 0.0
2017-Nov-14 01:58N 57°09' W 002°05'0 0.0
2017-Nov-14 01:28N 57°09' W 002°05'0 0.0
2017-Nov-14 00:58N 57°09' W 002°05'0 0.0
2017-Nov-14 00:28N 57°09' W 002°05'0 0.0
2017-Nov-13 23:58N 57°09' W 002°05'0 0.0
2017-Nov-13 23:28N 57°09' W 002°05'0 0.0
2017-Nov-13 22:58N 57°09' W 002°05'0 0.0
2017-Nov-13 22:28N 57°09' W 002°05'0 0.0
2017-Nov-13 21:58N 57°09' W 002°05'0 0.0
2017-Nov-13 01:58N 57°09' W 002°05'0 0.0
2017-Nov-13 01:28N 57°09' W 002°05'0 0.0
2017-Nov-13 00:58N 57°09' W 002°05'0 0.0
2017-Nov-13 00:28N 57°09' W 002°05'0 0.0
2017-Nov-12 23:58N 57°09' W 002°05'0 0.0
2017-Nov-12 23:22N 57°09' W 002°05'0 0.0
2017-Nov-12 22:58N 57°09' W 002°05'0 0.0
2017-Nov-12 22:28N 57°09' W 002°05'0 0.0
2017-Nov-12 21:58N 57°09' W 002°05'0 0.0
2017-Nov-12 21:28N 57°09' W 002°05'0 0.0
2017-Nov-12 20:58N 57°09' W 002°05'0 0.0
2017-Nov-12 20:30N 57°09' W 002°05'0 0.7
2017-Nov-12 20:01N 57°09' W 002°04'2 3.9
2017-Nov-12 19:31N 57°10' W 002°02'3 5.6
2017-Nov-12 19:00N 57°11' W 001°57'4 7.7
2017-Nov-12 18:30N 57°13' W 001°51'4 8.4
2017-Nov-12 17:59N 57°16' W 001°45'25612.4
2017-Nov-11 21:20N 59°59' E 004°33'411.4
2017-Nov-11 21:00N 60°02' E 004°39'611.5
2017-Nov-11 20:30N 60°05' E 004°48'611.5
2017-Nov-11 20:00N 60°08' E 004°58'612.0
2017-Nov-11 19:31N 60°10' E 005°09'612.6
2017-Nov-11 19:01N 60°16' E 005°10'612.7
2017-Nov-11 18:30N 60°23' E 005°10'3 6.6
2017-Nov-11 18:00N 60°26' E 005°10'0 0.0
2017-Nov-11 17:28N 60°26' E 005°10'0 0.0
2017-Nov-11 16:58N 60°26' E 005°10'0 0.0
2017-Nov-11 16:22N 60°26' E 005°10'0 0.0
2017-Nov-11 15:58N 60°26' E 005°10'0 0.0
2017-Nov-11 15:28N 60°26' E 005°10'0 0.0
2017-Nov-11 14:58N 60°26' E 005°10'0 0.0
2017-Nov-11 14:28N 60°26' E 005°10'0 0.0
2017-Nov-11 13:58N 60°26' E 005°10'0 0.0
2017-Nov-11 13:28N 60°26' E 005°10'0 0.0
2017-Nov-11 12:58N 60°26' E 005°10'0 0.0
2017-Nov-11 12:28N 60°26' E 005°10'0 0.0
2017-Nov-11 11:58N 60°26' E 005°10'0 0.0
2017-Nov-11 11:28N 60°26' E 005°10'0 0.0
2017-Nov-11 10:55N 60°26' E 005°10'0 0.0
2017-Nov-11 10:25N 60°26' E 005°10'0 0.0
2017-Nov-11 09:58N 60°26' E 005°10'0 0.0
2017-Nov-11 09:28N 60°26' E 005°10'0 0.0
2017-Nov-11 08:55N 60°26' E 005°10'0 0.0
2017-Nov-11 08:28N 60°26' E 005°10'0 0.0
2017-Nov-11 07:58N 60°26' E 005°10'0 0.0
2017-Nov-11 07:28N 60°26' E 005°10'0 0.0
2017-Nov-11 06:58N 60°26' E 005°10'0 0.0
2017-Nov-11 06:28N 60°26' E 005°10'0 0.0
2017-Nov-11 05:58N 60°26' E 005°10'0 0.0
2017-Nov-11 05:28N 60°26' E 005°10'0 0.0
2017-Nov-11 04:58N 60°26' E 005°10'0 0.0
2017-Nov-11 04:28N 60°26' E 005°10'0 0.0
2017-Nov-11 03:58N 60°26' E 005°10'0 0.0
2017-Nov-11 03:28N 60°26' E 005°10'0 0.0
2017-Nov-11 02:58N 60°26' E 005°10'0 0.0
2017-Nov-11 02:25N 60°26' E 005°10'0 0.0
2017-Nov-11 02:00N 60°26' E 005°10'3 6.5
2017-Nov-11 01:30N 60°23' E 005°10'612.8
2017-Nov-11 01:00N 60°16' E 005°10'612.1
2017-Nov-11 00:30N 60°10' E 005°09'5 9.9
2017-Nov-11 00:00N 60°09' E 005°00'4 8.0
2017-Nov-10 23:30N 60°05' E 004°55'510.6
2017-Nov-10 23:00N 60°00' E 004°54'510.2
2017-Nov-10 22:30N 59°55' E 004°52'510.5
2017-Nov-10 22:00N 59°50' E 004°51'510.1
2017-Nov-10 21:30N 59°45' E 004°49'510.0
2017-Nov-10 21:00N 59°40' E 004°47'510.1
2017-Nov-10 20:30N 59°35' E 004°46'5 9.7
2017-Nov-10 20:00N 59°30' E 004°43'  
Track history (hours):
 
Tides and Currents Weather Stations Pressure Air Temp Water Temp Dewpoint Dewpoint Depression Visibility Wind Speed Wind Dir Waves Ship Positions

UAL Bodewes

Last reported at 2017-Nov-19 19:20 UTC. Time now 2017-Nov-19 19:42 UTC.
Position N 48°14' W 006°25'.

Length 119 m; draft 6.8 m.

Type: Cargo ship. MMSI: 246704000.

Date/timePositionNaut miles runAvg speedWind from/ knotsBaromVisibWave heightAir tempDewpointWater temp
2017-Nov-19 19:20N 48°14' W 006°25'4812.5
2017-Nov-19 15:31N 48°54' W 005°46'711.7
2017-Nov-19 14:52N 48°58' W 005°36'10312.6
2017-Nov-19 06:43N 49°49' W 003°20'210.7
2017-Nov-19 06:30N 49°50' W 003°17'710.6
2017-Nov-19 05:48N 49°54' W 003°07'410.9
2017-Nov-19 05:27N 49°56' W 003°02'511.2
2017-Nov-19 05:00N 49°59' W 002°55'611.8
2017-Nov-19 04:28N 50°00' W 002°46'3314.2
2017-Nov-19 02:10N 50°02' W 001°55'315.8
2017-Nov-19 02:00N 50°01' W 001°51'815.9
2017-Nov-19 01:30N 49°57' W 001°40'815.9
2017-Nov-19 01:00N 49°54' W 001°29'816.0
2017-Nov-19 00:30N 49°50' W 001°18'714.8
2017-Nov-19 00:00N 49°47' W 001°08'1912.7
2017-Nov-18 22:29N 49°39' W 000°41'511.6
2017-Nov-18 22:00N 49°37' W 000°33'611.1
2017-Nov-18 21:30N 49°35' W 000°24'611.2
2017-Nov-18 21:01N 49°32' W 000°17'611.4
2017-Nov-18 20:31N 49°30' W 000°09'611.4
2017-Nov-18 20:00N 49°28' W 000°01'510.1
2017-Nov-18 19:31N 49°26' E 000°06'5 9.2
2017-Nov-18 19:01N 49°26' E 000°13'5 9.8
2017-Nov-18 18:30N 49°26' E 000°21'612.1
2017-Nov-18 18:01N 49°29' E 000°29'5 9.0
2017-Nov-18 17:31N 49°26' E 000°35'611.0
2017-Nov-18 17:01N 49°30' E 000°40'4 8.5
2017-Nov-18 16:31N 49°29' E 000°47'611.6
2017-Nov-18 16:00N 49°24' E 000°50'510.9
2017-Nov-18 15:31N 49°29' E 000°53'5 9.4
2017-Nov-18 15:00N 49°25' E 000°56'4 7.6
2017-Nov-18 14:29N 49°21' E 000°59'0 0.3
2017-Nov-18 13:59N 49°21' E 000°59'0 0.0
2017-Nov-18 13:29N 49°21' E 000°59'0 0.0
2017-Nov-18 12:47N 49°21' E 000°59'0 0.0
2017-Nov-18 12:23N 49°21' E 000°59'0 0.0
2017-Nov-18 11:59N 49°21' E 000°59'0 0.0
2017-Nov-18 11:29N 49°21' E 000°59'0 0.0
2017-Nov-18 10:59N 49°21' E 000°59'0 0.0
2017-Nov-18 10:29N 49°21' E 000°59'0 0.0
2017-Nov-18 09:59N 49°21' E 000°59'0 0.0
2017-Nov-18 09:23N 49°21' E 000°59'0 0.0
2017-Nov-18 08:59N 49°21' E 000°59'0 0.0
2017-Nov-18 08:29N 49°21' E 000°59'0 0.0
2017-Nov-18 07:59N 49°21' E 000°59'0 0.0
2017-Nov-18 07:23N 49°21' E 000°59'0 0.0
2017-Nov-18 06:59N 49°21' E 000°59'0 0.0
2017-Nov-18 06:29N 49°21' E 000°59'0 0.0
2017-Nov-18 05:59N 49°21' E 000°59'0 0.0
2017-Nov-18 05:29N 49°21' E 000°59'0 0.0
2017-Nov-18 04:59N 49°21' E 000°59'0 0.0
2017-Nov-18 04:29N 49°21' E 000°59'0 0.0
2017-Nov-18 03:59N 49°21' E 000°59'0 0.0
2017-Nov-18 03:29N 49°21' E 000°59'0 0.0
2017-Nov-18 02:59N 49°21' E 000°59'0 0.0
2017-Nov-18 02:29N 49°21' E 000°59'0 0.3
2017-Nov-18 02:00N 49°21' E 000°58'4 7.1
2017-Nov-18 01:30N 49°24' E 000°55'510.3
2017-Nov-18 01:00N 49°29' E 000°54'510.7
2017-Nov-18 00:30N 49°24' E 000°52'4 7.9
2017-Nov-18 00:00N 49°27' E 000°49'510.6
2017-Nov-17 23:30N 49°31' E 000°44'5 9.7
2017-Nov-17 23:00N 49°27' E 000°40'4 8.9
2017-Nov-17 22:30N 49°28' E 000°33'4 8.9
2017-Nov-17 22:00N 49°27' E 000°26'713.0
2017-Nov-17 21:30N 49°26' E 000°16'713.0
2017-Nov-17 21:00N 49°26' E 000°06'612.7
2017-Nov-17 20:30N 49°29' W 000°03'4 7.2
2017-Nov-17 20:00N 49°29' W 000°08'0 0.3
2017-Nov-17 19:30N 49°29' W 000°08'0 0.0
2017-Nov-17 19:00N 49°29' W 000°08'0 0.0
2017-Nov-17 18:30N 49°29' W 000°08'0 0.0
2017-Nov-17 18:00N 49°29' W 000°08'0 0.1
2017-Nov-17 17:30N 49°29' W 000°09'0 0.1
2017-Nov-17 17:00N 49°29' W 000°09'0 0.1
2017-Nov-17 16:30N 49°29' W 000°09'0 0.0
2017-Nov-17 16:00N 49°29' W 000°09'0 0.0
2017-Nov-17 15:30N 49°29' W 000°09'0 0.0
2017-Nov-17 15:00N 49°29' W 000°09'0 0.0
2017-Nov-17 14:30N 49°29' W 000°09'0 0.0
2017-Nov-17 13:57N 49°29' W 000°09'0 0.0
2017-Nov-17 13:30N 49°29' W 000°09'0 0.0
2017-Nov-17 13:00N 49°29' W 000°09'0 0.0
2017-Nov-17 12:30N 49°29' W 000°09'0 0.0
2017-Nov-17 11:57N 49°29' W 000°09'0 0.0
2017-Nov-17 11:30N 49°29' W 000°09'0 0.0
2017-Nov-17 10:57N 49°29' W 000°09'0 0.0
2017-Nov-17 10:30N 49°29' W 000°09'0 0.1
2017-Nov-17 10:00N 49°29' W 000°09'0 0.2
2017-Nov-17 09:30N 49°29' W 000°09'0 0.0
2017-Nov-17 09:00N 49°29' W 000°09'0 0.0
2017-Nov-17 08:30N 49°29' W 000°09'0 0.0
2017-Nov-17 08:00N 49°29' W 000°09'0 0.1
2017-Nov-17 07:30N 49°29' W 000°08'0 0.2
2017-Nov-17 07:00N 49°29' W 000°09'5 9.6
2017-Nov-17 06:30N 49°32' W 000°15'4 8.7
2017-Nov-17 06:01N 49°35' W 000°20'4 9.0
2017-Nov-17 05:30N 49°39' W 000°21'4 8.8
2017-Nov-17 05:00N 49°44' W 000°23'4 8.7
2017-Nov-17 04:31N 49°48' W 000°24'4 8.4
2017-Nov-17 04:00N 49°52' W 000°22'4 8.5
2017-Nov-17 03:30N 49°56' W 000°18'510.6
2017-Nov-17 02:59N 49°60' W 000°13'2511.1
2017-Nov-17 00:41N 50°25' W 000°04'210.6
2017-Nov-17 00:30N 50°27' W 000°03'612.4
2017-Nov-17 00:00N 50°29' E 000°06'612.3
2017-Nov-16 23:30N 50°30' E 000°16'712.0
2017-Nov-16 22:55N 50°32' E 000°26'511.7
2017-Nov-16 22:29N 50°34' E 000°34'511.1
2017-Nov-16 22:00N 50°37' E 000°40'611.1
2017-Nov-16 21:30N 50°41' E 000°46'510.8
2017-Nov-16 21:00N 50°44' E 000°53'1411.0
2017-Nov-16 19:45N 50°54' E 001°09'311.6
2017-Nov-16 19:30N 50°56' E 001°13'612.6
2017-Nov-16 19:00N 50°60' E 001°20'714.1
2017-Nov-16 18:30N 51°05' E 001°28'714.6
2017-Nov-16 18:00N 51°09' E 001°37'713.7
2017-Nov-16 17:30N 51°15' E 001°42'612.8
2017-Nov-16 17:00N 51°22' E 001°44'612.8
2017-Nov-16 16:30N 51°28' E 001°44'612.3
2017-Nov-16 16:00N 51°34' E 001°45'611.7
2017-Nov-16 15:30N 51°40' E 001°45'611.4
2017-Nov-16 15:00N 51°46' E 001°44'510.9
2017-Nov-16 14:30N 51°51' E 001°44'510.3
2017-Nov-16 14:00N 51°56' E 001°45'510.0
2017-Nov-16 13:30N 52°01' E 001°48'5 9.7
2017-Nov-16 13:00N 52°06' E 001°50'510.1
2017-Nov-16 12:30N 52°11' E 001°52'4310.4
2017-Nov-16 08:21N 52°54' E 001°60'513.7
2017-Nov-16 08:00N 52°56' E 001°53'714.0
2017-Nov-16 07:30N 52°60' E 001°43'714.4
2017-Nov-16 07:00N 53°03' E 001°32'714.3
2017-Nov-16 06:30N 53°08' E 001°24'714.3
2017-Nov-16 06:00N 53°14' E 001°16'6313.7
2017-Nov-16 01:23N 54°11' E 000°31'613.4
2017-Nov-16 00:55N 54°17' E 000°26'613.2
2017-Nov-16 00:27N 54°22' E 000°22'613.0
2017-Nov-15 23:59N 54°28' E 000°18'612.8
2017-Nov-15 23:29N 54°34' E 000°13'612.6
2017-Nov-15 23:00N 54°39' E 000°08'612.5
2017-Nov-15 22:29N 54°45' E 000°04'15012.7
2017-Nov-15 10:41N 56°59' W 001°56'313.8
2017-Nov-15 10:29N 57°01' W 001°57'714.1
2017-Nov-15 10:00N 57°08' W 002°01'2 4.4
2017-Nov-15 09:28N 57°09' W 002°05'0 0.0
2017-Nov-15 08:58N 57°09' W 002°05'0 0.0
2017-Nov-15 08:28N 57°09' W 002°05'0 0.0
2017-Nov-15 07:58N 57°09' W 002°05'0 0.0
2017-Nov-15 07:28N 57°09' W 002°05'0 0.0
2017-Nov-15 06:58N 57°09' W 002°05'0 0.0
2017-Nov-15 06:28N 57°09' W 002°05'0 0.0
2017-Nov-15 05:58N 57°09' W 002°05'0 0.0
2017-Nov-15 05:28N 57°09' W 002°05'0 0.0
2017-Nov-15 04:58N 57°09' W 002°05'0 0.0
2017-Nov-15 04:28N 57°09' W 002°05'0 0.0
2017-Nov-15 03:58N 57°09' W 002°05'0 0.0
2017-Nov-15 03:28N 57°09' W 002°05'0 0.0
2017-Nov-15 02:55N 57°09' W 002°05'0 0.0
2017-Nov-15 02:28N 57°09' W 002°05'0 0.0
2017-Nov-15 01:58N 57°09' W 002°05'0 0.0
2017-Nov-15 01:28N 57°09' W 002°05'0 0.0
2017-Nov-15 00:58N 57°09' W 002°05'0 0.0
2017-Nov-15 00:28N 57°09' W 002°05'0 0.0
2017-Nov-14 23:58N 57°09' W 002°05'0 0.0
2017-Nov-14 23:28N 57°09' W 002°05'0 0.0
2017-Nov-14 22:58N 57°09' W 002°05'0 0.3
2017-Nov-14 22:28N 57°09' W 002°05'0 0.0
2017-Nov-14 21:58N 57°09' W 002°05'0 0.0
2017-Nov-14 21:28N 57°09' W 002°05'0 0.0
2017-Nov-14 20:58N 57°09' W 002°05'0 0.0
2017-Nov-14 20:28N 57°09' W 002°05'0 0.0
2017-Nov-14 19:58N 57°09' W 002°05'0 0.0
2017-Nov-14 19:28N 57°09' W 002°05'0 0.0
2017-Nov-14 18:58N 57°09' W 002°05'0 0.0
2017-Nov-14 18:28N 57°09' W 002°05'0 0.0
2017-Nov-14 17:58N 57°09' W 002°05'0 0.0
2017-Nov-14 17:28N 57°09' W 002°05'0 0.0
2017-Nov-14 16:58N 57°09' W 002°05'0 0.0
2017-Nov-14 16:28N 57°09' W 002°05'0 0.0
2017-Nov-14 15:58N 57°09' W 002°05'0 0.0
2017-Nov-14 15:28N 57°09' W 002°05'0 0.0
2017-Nov-14 14:58N 57°09' W 002°05'0 0.0
2017-Nov-14 14:28N 57°09' W 002°05'0 0.0
2017-Nov-14 13:58N 57°09' W 002°05'0 0.0
2017-Nov-14 13:28N 57°09' W 002°05'0 0.0
2017-Nov-14 12:58N 57°09' W 002°05'0 0.0
2017-Nov-14 12:28N 57°09' W 002°05'0 0.0
2017-Nov-14 11:58N 57°09' W 002°05'0 0.0
2017-Nov-14 11:25N 57°09' W 002°05'0 0.0
2017-Nov-14 10:58N 57°09' W 002°05'0 0.0
2017-Nov-14 10:28N 57°09' W 002°05'0 0.0
2017-Nov-14 09:58N 57°09' W 002°05'0 0.0
2017-Nov-14 09:28N 57°09' W 002°05'0 0.0
2017-Nov-14 08:58N 57°09' W 002°05'0 0.0
2017-Nov-14 08:28N 57°09' W 002°05'0 0.0
2017-Nov-14 07:55N 57°09' W 002°05'0 0.0
2017-Nov-14 07:25N 57°09' W 002°05'0 0.0
2017-Nov-14 06:58N 57°09' W 002°05'0 0.0
2017-Nov-14 06:28N 57°09' W 002°05'0 0.0
2017-Nov-14 05:58N 57°09' W 002°05'0 0.0
2017-Nov-14 05:25N 57°09' W 002°05'0 0.0
2017-Nov-14 04:58N 57°09' W 002°05'0 0.0
2017-Nov-14 04:28N 57°09' W 002°05'0 0.0
2017-Nov-14 03:58N 57°09' W 002°05'0 0.0
2017-Nov-14 03:28N 57°09' W 002°05'0 0.0
2017-Nov-14 02:58N 57°09' W 002°05'0 0.0
2017-Nov-14 02:28N 57°09' W 002°05'0 0.0
2017-Nov-14 01:58N 57°09' W 002°05'0 0.0
2017-Nov-14 01:28N 57°09' W 002°05'0 0.0
2017-Nov-14 00:58N 57°09' W 002°05'0 0.0
2017-Nov-14 00:28N 57°09' W 002°05'0 0.0
2017-Nov-13 23:58N 57°09' W 002°05'0 0.0
2017-Nov-13 23:28N 57°09' W 002°05'0 0.0
2017-Nov-13 22:58N 57°09' W 002°05'0 0.0
2017-Nov-13 22:28N 57°09' W 002°05'0 0.0
2017-Nov-13 21:58N 57°09' W 002°05'0 0.0
2017-Nov-13 01:58N 57°09' W 002°05'0 0.0
2017-Nov-13 01:28N 57°09' W 002°05'0 0.0
2017-Nov-13 00:58N 57°09' W 002°05'0 0.0
2017-Nov-13 00:28N 57°09' W 002°05'0 0.0
2017-Nov-12 23:58N 57°09' W 002°05'0 0.0
2017-Nov-12 23:22N 57°09' W 002°05'0 0.0
2017-Nov-12 22:58N 57°09' W 002°05'0 0.0
2017-Nov-12 22:28N 57°09' W 002°05'0 0.0
2017-Nov-12 21:58N 57°09' W 002°05'0 0.0
2017-Nov-12 21:28N 57°09' W 002°05'0 0.0
2017-Nov-12 20:58N 57°09' W 002°05'0 0.0
2017-Nov-12 20:30N 57°09' W 002°05'0 0.7
2017-Nov-12 20:01N 57°09' W 002°04'2 3.9
2017-Nov-12 19:31N 57°10' W 002°02'3 5.6
2017-Nov-12 19:00N 57°11' W 001°57'4 7.7
2017-Nov-12 18:30N 57°13' W 001°51'4 8.4
2017-Nov-12 17:59N 57°16' W 001°45'25612.4
2017-Nov-11 21:20N 59°59' E 004°33'411.4
2017-Nov-11 21:00N 60°02' E 004°39'611.5
2017-Nov-11 20:30N 60°05' E 004°48'611.5
2017-Nov-11 20:00N 60°08' E 004°58'612.0
2017-Nov-11 19:31N 60°10' E 005°09'612.6
2017-Nov-11 19:01N 60°16' E 005°10'612.7
2017-Nov-11 18:30N 60°23' E 005°10'3 6.6
2017-Nov-11 18:00N 60°26' E 005°10'0 0.0
2017-Nov-11 17:28N 60°26' E 005°10'0 0.0
2017-Nov-11 16:58N 60°26' E 005°10'0 0.0
2017-Nov-11 16:22N 60°26' E 005°10'0 0.0
2017-Nov-11 15:58N 60°26' E 005°10'0 0.0
2017-Nov-11 15:28N 60°26' E 005°10'0 0.0
2017-Nov-11 14:58N 60°26' E 005°10'0 0.0
2017-Nov-11 14:28N 60°26' E 005°10'0 0.0
2017-Nov-11 13:58N 60°26' E 005°10'0 0.0
2017-Nov-11 13:28N 60°26' E 005°10'0 0.0
2017-Nov-11 12:58N 60°26' E 005°10'0 0.0
2017-Nov-11 12:28N 60°26' E 005°10'0 0.0
2017-Nov-11 11:58N 60°26' E 005°10'0 0.0
2017-Nov-11 11:28N 60°26' E 005°10'0 0.0
2017-Nov-11 10:55N 60°26' E 005°10'0 0.0
2017-Nov-11 10:25N 60°26' E 005°10'0 0.0
2017-Nov-11 09:58N 60°26' E 005°10'0 0.0
2017-Nov-11 09:28N 60°26' E 005°10'0 0.0
2017-Nov-11 08:55N 60°26' E 005°10'0 0.0
2017-Nov-11 08:28N 60°26' E 005°10'0 0.0
2017-Nov-11 07:58N 60°26' E 005°10'0 0.0
2017-Nov-11 07:28N 60°26' E 005°10'0 0.0
2017-Nov-11 06:58N 60°26' E 005°10'0 0.0
2017-Nov-11 06:28N 60°26' E 005°10'0 0.0
2017-Nov-11 05:58N 60°26' E 005°10'0 0.0
2017-Nov-11 05:28N 60°26' E 005°10'0 0.0
2017-Nov-11 04:58N 60°26' E 005°10'0 0.0
2017-Nov-11 04:28N 60°26' E 005°10'0 0.0
2017-Nov-11 03:58N 60°26' E 005°10'0 0.0
2017-Nov-11 03:28N 60°26' E 005°10'0 0.0
2017-Nov-11 02:58N 60°26' E 005°10'0 0.0
2017-Nov-11 02:25N 60°26' E 005°10'0 0.0
2017-Nov-11 02:00N 60°26' E 005°10'3 6.5
2017-Nov-11 01:30N 60°23' E 005°10'612.8
2017-Nov-11 01:00N 60°16' E 005°10'612.1
2017-Nov-11 00:30N 60°10' E 005°09'5 9.9
2017-Nov-11 00:00N 60°09' E 005°00'4 8.0
2017-Nov-10 23:30N 60°05' E 004°55'510.6
2017-Nov-10 23:00N 60°00' E 004°54'510.2
2017-Nov-10 22:30N 59°55' E 004°52'510.5
2017-Nov-10 22:00N 59°50' E 004°51'510.1
2017-Nov-10 21:30N 59°45' E 004°49'510.0
2017-Nov-10 21:00N 59°40' E 004°47'510.1
2017-Nov-10 20:30N 59°35' E 004°46'5 9.7
2017-Nov-10 20:00N 59°30' E 004°43'  

Dump ship's entire track history